sensor_id;sensor_type;location;lat;lon;timestamp;temperature;humidity
15113;DHT22;7657;50.140;7.076;2023-04-26T00:00:30;6.00;99.90
15113;DHT22;7657;50.140;7.076;2023-04-26T00:02:58;6.00;99.90
15113;DHT22;7657;50.140;7.076;2023-04-26T00:05:25;6.10;99.90
15113;DHT22;7657;50.140;7.076;2023-04-26T00:07:52;6.20;99.90
15113;DHT22;7657;50.140;7.076;2023-04-26T00:10:19;6.20;99.90
15113;DHT22;7657;50.140;7.076;2023-04-26T00:12:48;6.20;99.90
15113;DHT22;7657;50.140;7.076;2023-04-26T00:15:15;6.20;99.90
15113;DHT22;7657;50.140;7.076;2023-04-26T00:17:41;6.10;99.90
15113;DHT22;7657;50.140;7.076;2023-04-26T00:20:09;6.00;99.90
15113;DHT22;7657;50.140;7.076;2023-04-26T00:22:38;6.10;99.90
15113;DHT22;7657;50.140;7.076;2023-04-26T00:25:05;6.10;99.90
15113;DHT22;7657;50.140;7.076;2023-04-26T00:27:32;6.00;99.90
15113;DHT22;7657;50.140;7.076;2023-04-26T00:30:01;6.00;99.90
15113;DHT22;7657;50.140;7.076;2023-04-26T00:32:29;6.00;99.90
15113;DHT22;7657;50.140;7.076;2023-04-26T00:34:56;6.00;99.90
15113;DHT22;7657;50.140;7.076;2023-04-26T00:37:23;6.00;99.90
15113;DHT22;7657;50.140;7.076;2023-04-26T00:39:50;6.00;99.90
15113;DHT22;7657;50.140;7.076;2023-04-26T00:42:16;6.00;99.90
15113;DHT22;7657;50.140;7.076;2023-04-26T00:44:44;6.00;99.90
15113;DHT22;7657;50.140;7.076;2023-04-26T00:47:13;6.00;99.90
15113;DHT22;7657;50.140;7.076;2023-04-26T00:49:40;5.90;99.90
15113;DHT22;7657;50.140;7.076;2023-04-26T00:52:07;5.70;99.90
15113;DHT22;7657;50.140;7.076;2023-04-26T00:54:34;5.60;99.90
15113;DHT22;7657;50.140;7.076;2023-04-26T00:57:01;5.70;99.90
15113;DHT22;7657;50.140;7.076;2023-04-26T00:59:28;5.80;99.90
15113;DHT22;7657;50.140;7.076;2023-04-26T01:01:55;5.70;99.90
15113;DHT22;7657;50.140;7.076;2023-04-26T01:04:24;5.70;99.90
15113;DHT22;7657;50.140;7.076;2023-04-26T01:06:51;5.80;99.90
15113;DHT22;7657;50.140;7.076;2023-04-26T01:09:18;5.80;99.90
15113;DHT22;7657;50.140;7.076;2023-04-26T01:11:46;5.80;99.90
15113;DHT22;7657;50.140;7.076;2023-04-26T01:14:14;5.80;99.90
15113;DHT22;7657;50.140;7.076;2023-04-26T01:16:41;5.70;99.90
15113;DHT22;7657;50.140;7.076;2023-04-26T01:19:11;5.70;99.90
15113;DHT22;7657;50.140;7.076;2023-04-26T01:21:40;5.80;99.90
15113;DHT22;7657;50.140;7.076;2023-04-26T01:24:10;5.70;99.90
15113;DHT22;7657;50.140;7.076;2023-04-26T01:26:38;5.70;99.90
15113;DHT22;7657;50.140;7.076;2023-04-26T01:29:14;5.70;99.90
15113;DHT22;7657;50.140;7.076;2023-04-26T01:31:41;5.80;99.90
15113;DHT22;7657;50.140;7.076;2023-04-26T01:34:08;5.70;99.90
15113;DHT22;7657;50.140;7.076;2023-04-26T01:36:35;5.70;99.90
15113;DHT22;7657;50.140;7.076;2023-04-26T01:39:02;5.80;99.90
15113;DHT22;7657;50.140;7.076;2023-04-26T01:41:31;5.70;99.90
15113;DHT22;7657;50.140;7.076;2023-04-26T01:43:58;5.70;99.90
15113;DHT22;7657;50.140;7.076;2023-04-26T01:46:25;5.70;99.90
15113;DHT22;7657;50.140;7.076;2023-04-26T01:48:52;5.60;99.90
15113;DHT22;7657;50.140;7.076;2023-04-26T01:51:19;5.60;99.90
15113;DHT22;7657;50.140;7.076;2023-04-26T01:53:47;5.50;99.90
15113;DHT22;7657;50.140;7.076;2023-04-26T01:56:14;5.30;99.90
15113;DHT22;7657;50.140;7.076;2023-04-26T01:58:42;5.10;99.90
15113;DHT22;7657;50.140;7.076;2023-04-26T02:01:09;5.00;99.90
15113;DHT22;7657;50.140;7.076;2023-04-26T02:03:36;4.90;99.90
15113;DHT22;7657;50.140;7.076;2023-04-26T02:06:04;4.90;99.90
15113;DHT22;7657;50.140;7.076;2023-04-26T02:08:30;4.80;99.90
15113;DHT22;7657;50.140;7.076;2023-04-26T02:10:57;4.70;99.90
15113;DHT22;7657;50.140;7.076;2023-04-26T02:13:25;4.70;99.90
15113;DHT22;7657;50.140;7.076;2023-04-26T02:15:53;4.70;99.90
15113;DHT22;7657;50.140;7.076;2023-04-26T02:18:20;4.60;99.90
15113;DHT22;7657;50.140;7.076;2023-04-26T02:20:47;4.70;99.90
15113;DHT22;7657;50.140;7.076;2023-04-26T02:23:14;4.70;99.90
15113;DHT22;7657;50.140;7.076;2023-04-26T02:25:41;4.70;99.90
15113;DHT22;7657;50.140;7.076;2023-04-26T02:28:10;4.80;99.90
15113;DHT22;7657;50.140;7.076;2023-04-26T02:30:37;4.80;99.90
15113;DHT22;7657;50.140;7.076;2023-04-26T02:33:05;4.80;99.90
15113;DHT22;7657;50.140;7.076;2023-04-26T02:35:33;4.80;99.90
15113;DHT22;7657;50.140;7.076;2023-04-26T02:38:00;4.70;99.90
15113;DHT22;7657;50.140;7.076;2023-04-26T02:40:27;4.80;99.90
15113;DHT22;7657;50.140;7.076;2023-04-26T02:42:54;4.70;99.90
15113;DHT22;7657;50.140;7.076;2023-04-26T02:45:22;4.80;99.90
15113;DHT22;7657;50.140;7.076;2023-04-26T02:47:49;4.80;99.90
15113;DHT22;7657;50.140;7.076;2023-04-26T02:50:17;4.80;99.90
15113;DHT22;7657;50.140;7.076;2023-04-26T02:52:44;4.90;99.90
15113;DHT22;7657;50.140;7.076;2023-04-26T02:55:11;5.00;99.90
15113;DHT22;7657;50.140;7.076;2023-04-26T02:57:38;5.00;99.90
15113;DHT22;7657;50.140;7.076;2023-04-26T03:00:06;5.10;99.90
15113;DHT22;7657;50.140;7.076;2023-04-26T03:02:33;5.10;99.90
15113;DHT22;7657;50.140;7.076;2023-04-26T03:05:00;5.10;99.90
15113;DHT22;7657;50.140;7.076;2023-04-26T03:07:29;5.00;99.90
15113;DHT22;7657;50.140;7.076;2023-04-26T03:09:57;5.10;99.90
15113;DHT22;7657;50.140;7.076;2023-04-26T03:12:25;5.10;99.90
15113;DHT22;7657;50.140;7.076;2023-04-26T03:14:51;5.10;99.90
15113;DHT22;7657;50.140;7.076;2023-04-26T03:17:18;5.10;99.90
15113;DHT22;7657;50.140;7.076;2023-04-26T03:19:45;5.20;99.90
15113;DHT22;7657;50.140;7.076;2023-04-26T03:22:12;5.20;99.90
15113;DHT22;7657;50.140;7.076;2023-04-26T03:24:42;5.20;99.90
15113;DHT22;7657;50.140;7.076;2023-04-26T03:27:09;5.20;99.90
15113;DHT22;7657;50.140;7.076;2023-04-26T03:29:36;5.20;99.90
15113;DHT22;7657;50.140;7.076;2023-04-26T03:32:03;5.20;99.90
15113;DHT22;7657;50.140;7.076;2023-04-26T03:34:30;5.20;99.90
15113;DHT22;7657;50.140;7.076;2023-04-26T03:36:57;5.00;99.90
15113;DHT22;7657;50.140;7.076;2023-04-26T03:39:24;4.80;99.90
15113;DHT22;7657;50.140;7.076;2023-04-26T03:41:52;4.80;99.90
15113;DHT22;7657;50.140;7.076;2023-04-26T03:44:20;4.70;99.90
15113;DHT22;7657;50.140;7.076;2023-04-26T03:46:46;4.70;99.90
15113;DHT22;7657;50.140;7.076;2023-04-26T03:49:13;4.80;99.90
15113;DHT22;7657;50.140;7.076;2023-04-26T03:51:40;4.90;99.90
15113;DHT22;7657;50.140;7.076;2023-04-26T03:54:07;5.00;99.90
15113;DHT22;7657;50.140;7.076;2023-04-26T03:56:34;5.00;99.90
15113;DHT22;7657;50.140;7.076;2023-04-26T03:59:03;5.00;99.90
15113;DHT22;7657;50.140;7.076;2023-04-26T04:01:29;5.00;99.90
15113;DHT22;7657;50.140;7.076;2023-04-26T04:03:56;5.00;99.90
15113;DHT22;7657;50.140;7.076;2023-04-26T04:06:23;5.00;99.90
15113;DHT22;7657;50.140;7.076;2023-04-26T04:08:51;5.00;99.90
15113;DHT22;7657;50.140;7.076;2023-04-26T04:11:17;5.00;99.90
15113;DHT22;7657;50.140;7.076;2023-04-26T04:13:44;5.00;99.90
15113;DHT22;7657;50.140;7.076;2023-04-26T04:16:13;4.90;99.90
15113;DHT22;7657;50.140;7.076;2023-04-26T04:18:40;4.80;99.90
15113;DHT22;7657;50.140;7.076;2023-04-26T04:21:06;4.70;99.90
15113;DHT22;7657;50.140;7.076;2023-04-26T04:23:33;4.70;99.90
15113;DHT22;7657;50.140;7.076;2023-04-26T04:26:00;4.90;99.90
15113;DHT22;7657;50.140;7.076;2023-04-26T04:28:27;4.90;99.90
15113;DHT22;7657;50.140;7.076;2023-04-26T04:30:54;4.90;99.90
15113;DHT22;7657;50.140;7.076;2023-04-26T04:33:24;4.90;99.90
15113;DHT22;7657;50.140;7.076;2023-04-26T04:35:53;4.80;99.90
15113;DHT22;7657;50.140;7.076;2023-04-26T04:38:19;4.70;99.90
15113;DHT22;7657;50.140;7.076;2023-04-26T04:40:47;4.80;99.90
15113;DHT22;7657;50.140;7.076;2023-04-26T04:43:15;4.80;99.90
15113;DHT22;7657;50.140;7.076;2023-04-26T04:45:42;4.90;99.90
15113;DHT22;7657;50.140;7.076;2023-04-26T04:48:09;4.80;99.90
15113;DHT22;7657;50.140;7.076;2023-04-26T04:50:37;4.80;99.90
15113;DHT22;7657;50.140;7.076;2023-04-26T04:53:04;4.80;99.90
15113;DHT22;7657;50.140;7.076;2023-04-26T04:55:31;4.80;99.90
15113;DHT22;7657;50.140;7.076;2023-04-26T04:57:58;4.80;99.90
15113;DHT22;7657;50.140;7.076;2023-04-26T05:00:26;4.80;99.90
15113;DHT22;7657;50.140;7.076;2023-04-26T05:02:53;4.90;99.90
15113;DHT22;7657;50.140;7.076;2023-04-26T05:05:20;5.00;99.90
15113;DHT22;7657;50.140;7.076;2023-04-26T05:07:49;5.00;99.90
15113;DHT22;7657;50.140;7.076;2023-04-26T05:10:16;5.10;99.90
15113;DHT22;7657;50.140;7.076;2023-04-26T05:12:43;5.10;99.90
15113;DHT22;7657;50.140;7.076;2023-04-26T05:15:10;5.10;99.90
15113;DHT22;7657;50.140;7.076;2023-04-26T05:17:37;5.10;99.90
15113;DHT22;7657;50.140;7.076;2023-04-26T05:20:04;5.20;99.90
15113;DHT22;7657;50.140;7.076;2023-04-26T05:22:32;5.30;99.90
15113;DHT22;7657;50.140;7.076;2023-04-26T05:25:03;5.30;99.90
15113;DHT22;7657;50.140;7.076;2023-04-26T05:27:30;5.30;99.90
15113;DHT22;7657;50.140;7.076;2023-04-26T05:29:57;5.40;99.90
15113;DHT22;7657;50.140;7.076;2023-04-26T05:32:23;5.40;99.90
15113;DHT22;7657;50.140;7.076;2023-04-26T05:34:50;5.40;99.90
15113;DHT22;7657;50.140;7.076;2023-04-26T05:37:17;5.50;99.90
15113;DHT22;7657;50.140;7.076;2023-04-26T05:39:44;5.50;99.90
15113;DHT22;7657;50.140;7.076;2023-04-26T05:42:12;5.50;99.90
15113;DHT22;7657;50.140;7.076;2023-04-26T05:44:39;5.60;99.90
15113;DHT22;7657;50.140;7.076;2023-04-26T05:47:07;5.60;99.90
15113;DHT22;7657;50.140;7.076;2023-04-26T05:49:34;5.70;99.90
15113;DHT22;7657;50.140;7.076;2023-04-26T05:52:01;5.70;99.90
15113;DHT22;7657;50.140;7.076;2023-04-26T05:54:29;5.80;99.90
15113;DHT22;7657;50.140;7.076;2023-04-26T05:56:56;5.90;99.90
15113;DHT22;7657;50.140;7.076;2023-04-26T05:59:24;5.90;99.90
15113;DHT22;7657;50.140;7.076;2023-04-26T06:01:51;6.00;99.90
15113;DHT22;7657;50.140;7.076;2023-04-26T06:04:17;6.10;99.90
15113;DHT22;7657;50.140;7.076;2023-04-26T06:06:44;6.20;99.90
15113;DHT22;7657;50.140;7.076;2023-04-26T06:09:11;6.30;99.90
15113;DHT22;7657;50.140;7.076;2023-04-26T06:11:38;6.30;99.90
15113;DHT22;7657;50.140;7.076;2023-04-26T06:14:05;6.30;99.90
15113;DHT22;7657;50.140;7.076;2023-04-26T06:16:33;6.30;99.90
15113;DHT22;7657;50.140;7.076;2023-04-26T06:19:01;6.40;99.90
15113;DHT22;7657;50.140;7.076;2023-04-26T06:21:28;6.30;99.90
15113;DHT22;7657;50.140;7.076;2023-04-26T06:23:55;6.40;99.90
15113;DHT22;7657;50.140;7.076;2023-04-26T06:26:22;6.40;99.90
15113;DHT22;7657;50.140;7.076;2023-04-26T06:28:49;6.40;99.90
15113;DHT22;7657;50.140;7.076;2023-04-26T06:31:16;6.40;99.90
15113;DHT22;7657;50.140;7.076;2023-04-26T06:33:45;6.40;99.90
15113;DHT22;7657;50.140;7.076;2023-04-26T06:36:12;6.50;99.90
15113;DHT22;7657;50.140;7.076;2023-04-26T06:38:39;6.60;99.90
15113;DHT22;7657;50.140;7.076;2023-04-26T06:41:06;6.60;99.90
15113;DHT22;7657;50.140;7.076;2023-04-26T06:43:33;6.60;99.90
15113;DHT22;7657;50.140;7.076;2023-04-26T06:46:00;6.60;99.90
15113;DHT22;7657;50.140;7.076;2023-04-26T06:48:27;6.70;99.90
15113;DHT22;7657;50.140;7.076;2023-04-26T06:50:55;6.70;99.90
15113;DHT22;7657;50.140;7.076;2023-04-26T06:53:22;6.80;99.90
15113;DHT22;7657;50.140;7.076;2023-04-26T06:55:49;6.80;99.90
15113;DHT22;7657;50.140;7.076;2023-04-26T06:58:17;6.90;99.90
15113;DHT22;7657;50.140;7.076;2023-04-26T07:00:44;6.90;99.90
15113;DHT22;7657;50.140;7.076;2023-04-26T07:03:11;6.90;99.90
15113;DHT22;7657;50.140;7.076;2023-04-26T07:05:38;6.90;99.90
15113;DHT22;7657;50.140;7.076;2023-04-26T07:08:06;6.80;99.90
15113;DHT22;7657;50.140;7.076;2023-04-26T07:10:33;6.80;99.90
15113;DHT22;7657;50.140;7.076;2023-04-26T07:13:00;6.80;99.90
15113;DHT22;7657;50.140;7.076;2023-04-26T07:15:27;6.80;99.90
15113;DHT22;7657;50.140;7.076;2023-04-26T07:17:54;6.90;99.90
15113;DHT22;7657;50.140;7.076;2023-04-26T07:20:21;6.70;99.90
15113;DHT22;7657;50.140;7.076;2023-04-26T07:22:48;6.80;99.90
15113;DHT22;7657;50.140;7.076;2023-04-26T07:25:17;6.80;99.90
15113;DHT22;7657;50.140;7.076;2023-04-26T07:27:44;6.90;99.90
15113;DHT22;7657;50.140;7.076;2023-04-26T07:30:11;7.10;99.90
15113;DHT22;7657;50.140;7.076;2023-04-26T07:32:38;7.20;99.90
15113;DHT22;7657;50.140;7.076;2023-04-26T07:35:06;7.30;99.90
15113;DHT22;7657;50.140;7.076;2023-04-26T07:37:35;7.30;99.90
15113;DHT22;7657;50.140;7.076;2023-04-26T07:40:02;7.20;99.90
15113;DHT22;7657;50.140;7.076;2023-04-26T07:42:31;7.30;99.90
15113;DHT22;7657;50.140;7.076;2023-04-26T07:44:58;7.40;99.90
15113;DHT22;7657;50.140;7.076;2023-04-26T07:47:25;7.50;99.90
15113;DHT22;7657;50.140;7.076;2023-04-26T07:49:52;7.60;99.90
15113;DHT22;7657;50.140;7.076;2023-04-26T07:52:20;7.70;99.90
15113;DHT22;7657;50.140;7.076;2023-04-26T07:54:46;7.80;99.90
15113;DHT22;7657;50.140;7.076;2023-04-26T07:57:13;7.90;99.90
15113;DHT22;7657;50.140;7.076;2023-04-26T07:59:42;7.90;99.90
15113;DHT22;7657;50.140;7.076;2023-04-26T08:02:09;7.90;99.90
15113;DHT22;7657;50.140;7.076;2023-04-26T08:04:36;7.90;99.90
15113;DHT22;7657;50.140;7.076;2023-04-26T08:07:03;7.80;99.90
15113;DHT22;7657;50.140;7.076;2023-04-26T08:09:30;7.90;99.90
15113;DHT22;7657;50.140;7.076;2023-04-26T08:11:57;7.90;99.90
15113;DHT22;7657;50.140;7.076;2023-04-26T08:14:24;8.10;99.90
15113;DHT22;7657;50.140;7.076;2023-04-26T08:16:52;8.20;99.90
15113;DHT22;7657;50.140;7.076;2023-04-26T08:19:19;8.30;99.90
15113;DHT22;7657;50.140;7.076;2023-04-26T08:21:46;8.20;99.90
15113;DHT22;7657;50.140;7.076;2023-04-26T08:24:13;8.30;99.90
15113;DHT22;7657;50.140;7.076;2023-04-26T08:26:40;8.40;99.90
15113;DHT22;7657;50.140;7.076;2023-04-26T08:29:07;8.50;99.90
15113;DHT22;7657;50.140;7.076;2023-04-26T08:31:34;8.40;99.90
15113;DHT22;7657;50.140;7.076;2023-04-26T08:34:02;8.50;99.90
15113;DHT22;7657;50.140;7.076;2023-04-26T08:36:29;8.50;99.90
15113;DHT22;7657;50.140;7.076;2023-04-26T08:38:56;8.50;99.90
15113;DHT22;7657;50.140;7.076;2023-04-26T08:41:25;8.60;99.90
15113;DHT22;7657;50.140;7.076;2023-04-26T08:43:53;8.70;99.90
15113;DHT22;7657;50.140;7.076;2023-04-26T08:46:25;8.80;99.90
15113;DHT22;7657;50.140;7.076;2023-04-26T08:49:00;8.80;99.90
15113;DHT22;7657;50.140;7.076;2023-04-26T08:51:32;8.90;99.90
15113;DHT22;7657;50.140;7.076;2023-04-26T08:54:03;9.00;99.90
15113;DHT22;7657;50.140;7.076;2023-04-26T08:56:30;9.10;99.90
15113;DHT22;7657;50.140;7.076;2023-04-26T08:58:59;9.10;99.90
15113;DHT22;7657;50.140;7.076;2023-04-26T09:01:28;9.30;99.90
15113;DHT22;7657;50.140;7.076;2023-04-26T09:03:55;9.30;99.90
15113;DHT22;7657;50.140;7.076;2023-04-26T09:06:22;9.30;99.90
15113;DHT22;7657;50.140;7.076;2023-04-26T09:08:54;9.40;99.90
15113;DHT22;7657;50.140;7.076;2023-04-26T09:11:21;9.40;99.90
15113;DHT22;7657;50.140;7.076;2023-04-26T09:13:48;9.50;99.90
15113;DHT22;7657;50.140;7.076;2023-04-26T09:16:15;9.40;99.90
15113;DHT22;7657;50.140;7.076;2023-04-26T09:18:49;9.40;99.90
15113;DHT22;7657;50.140;7.076;2023-04-26T09:21:19;9.40;99.90
15113;DHT22;7657;50.140;7.076;2023-04-26T09:24:00;9.40;99.90
15113;DHT22;7657;50.140;7.076;2023-04-26T09:26:29;9.50;99.90
15113;DHT22;7657;50.140;7.076;2023-04-26T09:29:12;9.60;99.90
15113;DHT22;7657;50.140;7.076;2023-04-26T09:31:41;9.60;99.90
15113;DHT22;7657;50.140;7.076;2023-04-26T09:34:09;9.70;99.90
15113;DHT22;7657;50.140;7.076;2023-04-26T09:36:49;9.70;99.90
15113;DHT22;7657;50.140;7.076;2023-04-26T09:39:31;9.80;99.90
15113;DHT22;7657;50.140;7.076;2023-04-26T09:41:58;9.90;99.90
15113;DHT22;7657;50.140;7.076;2023-04-26T09:44:25;9.90;99.90
15113;DHT22;7657;50.140;7.076;2023-04-26T09:47:03;10.00;99.90
15113;DHT22;7657;50.140;7.076;2023-04-26T09:49:32;10.00;99.90
15113;DHT22;7657;50.140;7.076;2023-04-26T09:52:08;10.00;99.90
15113;DHT22;7657;50.140;7.076;2023-04-26T09:54:41;10.10;99.90
15113;DHT22;7657;50.140;7.076;2023-04-26T09:57:09;10.20;99.90
15113;DHT22;7657;50.140;7.076;2023-04-26T09:59:40;10.30;99.90
15113;DHT22;7657;50.140;7.076;2023-04-26T10:02:15;10.40;99.90
15113;DHT22;7657;50.140;7.076;2023-04-26T10:04:46;10.40;99.90
15113;DHT22;7657;50.140;7.076;2023-04-26T10:07:14;10.40;99.90
15113;DHT22;7657;50.140;7.076;2023-04-26T10:09:43;10.40;99.90
15113;DHT22;7657;50.140;7.076;2023-04-26T10:12:13;10.50;99.90
15113;DHT22;7657;50.140;7.076;2023-04-26T10:14:40;10.50;99.90
15113;DHT22;7657;50.140;7.076;2023-04-26T10:17:07;10.60;99.90
15113;DHT22;7657;50.140;7.076;2023-04-26T10:19:35;10.50;99.90
15113;DHT22;7657;50.140;7.076;2023-04-26T10:22:05;10.50;99.90
15113;DHT22;7657;50.140;7.076;2023-04-26T10:24:34;10.60;99.90
15113;DHT22;7657;50.140;7.076;2023-04-26T10:27:02;10.70;99.90
15113;DHT22;7657;50.140;7.076;2023-04-26T10:30:04;10.60;99.90
15113;DHT22;7657;50.140;7.076;2023-04-26T10:32:32;10.70;99.90
15113;DHT22;7657;50.140;7.076;2023-04-26T10:35:20;10.70;99.90
15113;DHT22;7657;50.140;7.076;2023-04-26T10:38:09;10.40;99.90
15113;DHT22;7657;50.140;7.076;2023-04-26T10:40:37;10.40;99.90
15113;DHT22;7657;50.140;7.076;2023-04-26T10:43:27;10.20;99.90
15113;DHT22;7657;50.140;7.076;2023-04-26T10:45:54;10.10;99.90
15113;DHT22;7657;50.140;7.076;2023-04-26T10:48:27;10.10;99.90
15113;DHT22;7657;50.140;7.076;2023-04-26T10:51:07;10.10;99.90
15113;DHT22;7657;50.140;7.076;2023-04-26T10:53:58;10.10;99.90
15113;DHT22;7657;50.140;7.076;2023-04-26T10:56:51;10.20;99.90
15113;DHT22;7657;50.140;7.076;2023-04-26T10:59:20;10.30;99.90
15113;DHT22;7657;50.140;7.076;2023-04-26T11:01:47;10.40;99.90
15113;DHT22;7657;50.140;7.076;2023-04-26T11:04:14;10.60;99.90
15113;DHT22;7657;50.140;7.076;2023-04-26T11:06:46;10.50;99.90
15113;DHT22;7657;50.140;7.076;2023-04-26T11:09:33;10.60;99.90
15113;DHT22;7657;50.140;7.076;2023-04-26T11:12:03;10.60;99.90
15113;DHT22;7657;50.140;7.076;2023-04-26T11:14:32;10.80;99.90
15113;DHT22;7657;50.140;7.076;2023-04-26T11:17:02;11.00;99.90
15113;DHT22;7657;50.140;7.076;2023-04-26T11:19:30;10.80;99.90
15113;DHT22;7657;50.140;7.076;2023-04-26T11:21:57;11.00;99.90
15113;DHT22;7657;50.140;7.076;2023-04-26T11:24:25;11.10;99.90
15113;DHT22;7657;50.140;7.076;2023-04-26T11:26:53;11.20;99.90
15113;DHT22;7657;50.140;7.076;2023-04-26T11:29:20;11.10;99.90
15113;DHT22;7657;50.140;7.076;2023-04-26T11:31:52;11.10;99.90
15113;DHT22;7657;50.140;7.076;2023-04-26T11:34:20;11.30;99.90
15113;DHT22;7657;50.140;7.076;2023-04-26T11:36:50;11.50;99.90
15113;DHT22;7657;50.140;7.076;2023-04-26T11:39:19;11.80;99.90
15113;DHT22;7657;50.140;7.076;2023-04-26T11:41:47;11.80;99.90
15113;DHT22;7657;50.140;7.076;2023-04-26T11:44:17;11.70;99.90
15113;DHT22;7657;50.140;7.076;2023-04-26T11:46:46;11.70;99.90
15113;DHT22;7657;50.140;7.076;2023-04-26T11:49:15;11.70;99.90
15113;DHT22;7657;50.140;7.076;2023-04-26T11:51:45;11.80;99.90
15113;DHT22;7657;50.140;7.076;2023-04-26T11:54:26;11.60;99.90
15113;DHT22;7657;50.140;7.076;2023-04-26T11:56:53;11.60;99.90
15113;DHT22;7657;50.140;7.076;2023-04-26T11:59:23;11.70;99.90
15113;DHT22;7657;50.140;7.076;2023-04-26T12:01:50;11.80;99.90
15113;DHT22;7657;50.140;7.076;2023-04-26T12:04:19;12.00;99.90
15113;DHT22;7657;50.140;7.076;2023-04-26T12:06:52;12.10;99.90
15113;DHT22;7657;50.140;7.076;2023-04-26T12:09:22;12.10;99.90
15113;DHT22;7657;50.140;7.076;2023-04-26T12:11:53;12.30;99.90
15113;DHT22;7657;50.140;7.076;2023-04-26T12:14:22;12.40;99.90
15113;DHT22;7657;50.140;7.076;2023-04-26T12:16:51;12.60;99.90
15113;DHT22;7657;50.140;7.076;2023-04-26T12:19:23;12.80;99.90
15113;DHT22;7657;50.140;7.076;2023-04-26T12:21:51;13.00;99.90
15113;DHT22;7657;50.140;7.076;2023-04-26T12:24:25;13.10;99.90
15113;DHT22;7657;50.140;7.076;2023-04-26T12:26:52;12.90;99.90
15113;DHT22;7657;50.140;7.076;2023-04-26T12:29:19;12.80;99.90
15113;DHT22;7657;50.140;7.076;2023-04-26T12:31:46;12.70;99.90
15113;DHT22;7657;50.140;7.076;2023-04-26T12:34:13;12.60;99.90
15113;DHT22;7657;50.140;7.076;2023-04-26T12:36:41;12.80;99.90
15113;DHT22;7657;50.140;7.076;2023-04-26T12:39:09;12.80;99.90
15113;DHT22;7657;50.140;7.076;2023-04-26T12:41:37;12.70;99.90
15113;DHT22;7657;50.140;7.076;2023-04-26T12:44:04;12.90;99.90
15113;DHT22;7657;50.140;7.076;2023-04-26T12:46:31;13.10;99.90
15113;DHT22;7657;50.140;7.076;2023-04-26T12:48:58;13.20;99.90
15113;DHT22;7657;50.140;7.076;2023-04-26T12:51:25;13.30;99.90
15113;DHT22;7657;50.140;7.076;2023-04-26T12:53:53;13.00;99.90
15113;DHT22;7657;50.140;7.076;2023-04-26T12:56:20;13.10;99.90
15113;DHT22;7657;50.140;7.076;2023-04-26T12:58:47;13.10;99.90
15113;DHT22;7657;50.140;7.076;2023-04-26T13:01:14;13.00;99.90
15113;DHT22;7657;50.140;7.076;2023-04-26T13:03:41;13.00;99.90
15113;DHT22;7657;50.140;7.076;2023-04-26T13:06:08;13.40;99.90
15113;DHT22;7657;50.140;7.076;2023-04-26T13:08:35;13.50;99.90
15113;DHT22;7657;50.140;7.076;2023-04-26T13:11:04;13.60;99.10
15113;DHT22;7657;50.140;7.076;2023-04-26T13:13:30;13.60;99.90
15113;DHT22;7657;50.140;7.076;2023-04-26T13:15:58;13.20;98.70
15113;DHT22;7657;50.140;7.076;2023-04-26T13:18:25;13.20;99.80
15113;DHT22;7657;50.140;7.076;2023-04-26T13:20:51;13.30;98.00
15113;DHT22;7657;50.140;7.076;2023-04-26T13:23:18;13.30;99.10
15113;DHT22;7657;50.140;7.076;2023-04-26T13:25:45;13.30;98.40
15113;DHT22;7657;50.140;7.076;2023-04-26T13:28:13;13.30;99.00
15113;DHT22;7657;50.140;7.076;2023-04-26T13:30:40;13.40;96.70
15113;DHT22;7657;50.140;7.076;2023-04-26T13:33:07;13.80;96.90
15113;DHT22;7657;50.140;7.076;2023-04-26T13:35:34;14.00;97.90
15113;DHT22;7657;50.140;7.076;2023-04-26T13:38:01;14.60;99.80
15113;DHT22;7657;50.140;7.076;2023-04-26T13:40:28;14.90;99.00
15113;DHT22;7657;50.140;7.076;2023-04-26T13:42:55;15.00;99.90
15113;DHT22;7657;50.140;7.076;2023-04-26T13:45:23;15.00;98.40
15113;DHT22;7657;50.140;7.076;2023-04-26T13:47:50;15.20;97.70
15113;DHT22;7657;50.140;7.076;2023-04-26T13:50:17;15.50;97.00
15113;DHT22;7657;50.140;7.076;2023-04-26T13:52:44;15.40;95.90
15113;DHT22;7657;50.140;7.076;2023-04-26T13:55:13;15.40;97.00
15113;DHT22;7657;50.140;7.076;2023-04-26T13:57:39;15.70;97.50
15113;DHT22;7657;50.140;7.076;2023-04-26T14:00:07;15.70;95.00
15113;DHT22;7657;50.140;7.076;2023-04-26T14:02:37;15.60;95.60
15113;DHT22;7657;50.140;7.076;2023-04-26T14:05:05;15.50;93.40
15113;DHT22;7657;50.140;7.076;2023-04-26T14:07:33;15.50;94.30
15113;DHT22;7657;50.140;7.076;2023-04-26T14:10:00;16.00;94.30
15113;DHT22;7657;50.140;7.076;2023-04-26T14:12:28;16.40;93.40
15113;DHT22;7657;50.140;7.076;2023-04-26T14:14:55;16.90;92.70
15113;DHT22;7657;50.140;7.076;2023-04-26T14:17:22;17.00;93.40
15113;DHT22;7657;50.140;7.076;2023-04-26T14:19:51;16.50;91.50
15113;DHT22;7657;50.140;7.076;2023-04-26T14:22:18;16.40;89.30
15113;DHT22;7657;50.140;7.076;2023-04-26T14:24:45;16.10;91.80
15113;DHT22;7657;50.140;7.076;2023-04-26T14:27:12;15.80;90.50
15113;DHT22;7657;50.140;7.076;2023-04-26T14:29:39;16.40;93.30
15113;DHT22;7657;50.140;7.076;2023-04-26T14:32:06;16.80;91.50
15113;DHT22;7657;50.140;7.076;2023-04-26T14:34:33;17.20;91.00
15113;DHT22;7657;50.140;7.076;2023-04-26T14:37:05;17.20;90.80
15113;DHT22;7657;50.140;7.076;2023-04-26T14:39:32;17.80;86.90
15113;DHT22;7657;50.140;7.076;2023-04-26T14:41:59;18.20;88.20
15113;DHT22;7657;50.140;7.076;2023-04-26T14:44:26;18.80;90.70
15113;DHT22;7657;50.140;7.076;2023-04-26T14:46:53;19.00;84.60
15113;DHT22;7657;50.140;7.076;2023-04-26T14:49:21;19.30;83.60
15113;DHT22;7657;50.140;7.076;2023-04-26T14:51:48;19.40;78.80
15113;DHT22;7657;50.140;7.076;2023-04-26T14:54:16;19.50;75.40
15113;DHT22;7657;50.140;7.076;2023-04-26T14:56:43;19.90;73.60
15113;DHT22;7657;50.140;7.076;2023-04-26T14:59:10;19.10;71.90
15113;DHT22;7657;50.140;7.076;2023-04-26T15:01:36;19.20;70.10
15113;DHT22;7657;50.140;7.076;2023-04-26T15:04:03;18.90;68.80
15113;DHT22;7657;50.140;7.076;2023-04-26T15:06:30;18.80;69.00
15113;DHT22;7657;50.140;7.076;2023-04-26T15:08:58;18.80;67.60
15113;DHT22;7657;50.140;7.076;2023-04-26T15:11:27;19.20;67.70
15113;DHT22;7657;50.140;7.076;2023-04-26T15:13:54;19.10;67.60
15113;DHT22;7657;50.140;7.076;2023-04-26T15:16:20;19.30;71.60
15113;DHT22;7657;50.140;7.076;2023-04-26T15:18:47;20.00;68.10
15113;DHT22;7657;50.140;7.076;2023-04-26T15:21:17;20.40;66.50
15113;DHT22;7657;50.140;7.076;2023-04-26T15:23:44;19.50;63.50
15113;DHT22;7657;50.140;7.076;2023-04-26T15:26:11;19.20;66.80
15113;DHT22;7657;50.140;7.076;2023-04-26T15:28:39;17.90;63.30
15113;DHT22;7657;50.140;7.076;2023-04-26T15:31:08;17.90;65.40
15113;DHT22;7657;50.140;7.076;2023-04-26T15:33:36;18.20;69.80
15113;DHT22;7657;50.140;7.076;2023-04-26T15:36:03;18.60;66.30
15113;DHT22;7657;50.140;7.076;2023-04-26T15:38:32;18.40;64.50
15113;DHT22;7657;50.140;7.076;2023-04-26T15:40:59;18.50;67.70
15113;DHT22;7657;50.140;7.076;2023-04-26T15:43:26;18.80;69.50
15113;DHT22;7657;50.140;7.076;2023-04-26T15:45:55;18.90;70.50
15113;DHT22;7657;50.140;7.076;2023-04-26T15:48:25;19.00;67.70
15113;DHT22;7657;50.140;7.076;2023-04-26T15:50:52;19.00;66.80
15113;DHT22;7657;50.140;7.076;2023-04-26T15:53:21;19.10;68.60
15113;DHT22;7657;50.140;7.076;2023-04-26T15:55:48;19.10;67.30
15113;DHT22;7657;50.140;7.076;2023-04-26T15:58:18;19.10;68.10
15113;DHT22;7657;50.140;7.076;2023-04-26T16:00:47;19.10;71.10